Time;durP1;ratioP1;P1;durP2;ratioP2;P2;SDS_P1;SDS_P2;PMS_P1;PMS_P2;Temp;Humidity;BMP_temperature;BMP_pressure;BME280_temperature;BME280_humidity;BME280_pressure;Samples;Min_cycle;Max_cycle;Signal;HPM_P1;HPM_P2
2023/08/27 00:01:49;;;;;;;10.52;7.07;;;23.00;99.90;;;;;;5139015;28;20053;-75
2023/08/27 00:04:20;;;;;;;10.68;7.68;;;23.00;99.90;;;;;;5139632;28;20023;-74
2023/08/27 00:06:51;;;;;;;12.45;7.28;;;23.00;99.90;;;;;;5138723;28;20050;-73
2023/08/27 00:09:22;;;;;;;13.40;7.38;;;23.10;99.90;;;;;;5138979;28;20046;-73
2023/08/27 00:11:53;;;;;;;8.85;7.53;;;23.20;99.90;;;;;;5139300;28;20027;-74
2023/08/27 00:14:23;;;;;;;10.43;7.82;;;23.00;99.90;;;;;;5139719;28;20065;-75
2023/08/27 00:16:54;;;;;;;10.15;8.52;;;23.00;99.90;;;;;;5138722;28;20035;-74
2023/08/27 00:19:25;;;;;;;12.13;9.43;;;23.00;99.90;;;;;;5139351;28;20038;-74
2023/08/27 00:21:58;;;;;;;13.25;9.32;;;23.10;99.90;;;;;;5138776;28;20035;-73
2023/08/27 00:24:28;;;;;;;10.25;9.35;;;23.10;99.90;;;;;;5136916;28;20082;-74
2023/08/27 00:26:59;;;;;;;11.98;8.98;;;23.30;99.90;;;;;;5138604;28;20043;-73
2023/08/27 00:32:11;;;;;;;11.80;9.07;;;23.20;99.90;;;;;;5416512;23;20526;-74
2023/08/27 00:34:42;;;;;;;10.13;9.07;;;23.30;99.90;;;;;;5150752;28;20097;-73
2023/08/27 00:37:13;;;;;;;9.85;8.85;;;23.30;99.90;;;;;;5156518;28;20035;-73
2023/08/27 00:39:44;;;;;;;11.63;8.48;;;23.30;99.90;;;;;;5157307;28;20109;-73
2023/08/27 00:42:15;;;;;;;9.95;8.95;;;23.30;99.90;;;;;;5157168;28;20034;-72
2023/08/27 00:44:45;;;;;;;11.32;8.75;;;23.20;99.90;;;;;;5158835;28;20023;-73
2023/08/27 00:47:17;;;;;;;12.30;9.38;;;23.20;99.90;;;;;;5158261;28;20097;-73
2023/08/27 00:49:48;;;;;;;15.02;9.52;;;23.30;99.90;;;;;;5158232;28;20035;-72
2023/08/27 00:52:20;;;;;;;12.40;8.57;;;23.20;99.90;;;;;;5157857;28;20089;-73
2023/08/27 00:54:53;;;;;;;13.38;8.77;;;23.30;99.90;;;;;;5158660;28;20018;-72
2023/08/27 00:57:25;;;;;;;10.38;9.18;;;23.30;99.90;;;;;;5158079;28;20069;-73
2023/08/27 00:59:57;;;;;;;10.30;8.32;;;23.20;99.90;;;;;;5158816;28;20026;-73
2023/08/27 01:02:28;;;;;;;11.50;8.73;;;23.40;99.90;;;;;;5158613;28;20121;-74
2023/08/27 01:04:59;;;;;;;9.35;8.32;;;23.40;99.90;;;;;;5158920;28;20378;-73
2023/08/27 01:07:49;;;;;;;12.48;9.48;;;23.40;99.90;;;;;;5159169;28;20100;-72
2023/08/27 01:10:49;;;;;;;10.88;8.70;;;23.20;99.90;;;;;;5158611;28;20470;-72
2023/08/27 01:13:56;;;;;;;13.30;8.73;;;23.40;99.90;;;;;;5162092;28;20030;-73
2023/08/27 01:16:28;;;;;;;8.57;7.57;;;23.30;99.90;;;;;;5162596;28;20041;-72
2023/08/27 01:19:00;;;;;;;14.63;8.35;;;23.40;99.90;;;;;;5162823;28;20089;-72
2023/08/27 01:21:31;;;;;;;9.80;7.70;;;23.40;99.90;;;;;;5160548;28;20038;-73
2023/08/27 01:24:02;;;;;;;8.60;6.63;;;23.30;99.90;;;;;;5162556;28;20034;-73
2023/08/27 01:26:45;;;;;;;12.82;7.63;;;23.50;99.90;;;;;;5161257;28;20026;-74
2023/08/27 01:29:31;;;;;;;12.50;7.13;;;23.40;99.90;;;;;;5159999;28;20042;-73
2023/08/27 01:32:08;;;;;;;9.50;7.35;;;23.50;99.90;;;;;;5159827;28;20081;-72
2023/08/27 01:34:41;;;;;;;11.65;7.38;;;23.40;99.90;;;;;;5159778;28;20097;-73
2023/08/27 01:37:14;;;;;;;12.35;7.78;;;23.50;99.90;;;;;;5157275;28;20018;-73
2023/08/27 01:39:45;;;;;;;8.95;6.57;;;23.50;99.90;;;;;;5160725;28;20034;-73
2023/08/27 01:42:15;;;;;;;9.20;7.05;;;23.50;99.90;;;;;;5161020;28;20089;-72
2023/08/27 01:44:46;;;;;;;9.80;7.18;;;23.50;99.90;;;;;;5162106;28;20022;-72
2023/08/27 01:47:17;;;;;;;10.88;7.15;;;23.50;99.90;;;;;;5160958;28;20034;-73
2023/08/27 01:49:51;;;;;;;10.68;6.68;;;23.40;99.90;;;;;;5161395;28;20057;-72
2023/08/27 01:52:22;;;;;;;12.60;7.15;;;23.50;99.90;;;;;;5161519;28;20120;-73
2023/08/27 01:54:53;;;;;;;11.82;7.30;;;23.50;99.90;;;;;;5160582;28;20109;-73
2023/08/27 01:57:24;;;;;;;11.30;6.80;;;23.50;99.90;;;;;;5160418;28;20034;-72
2023/08/27 01:59:55;;;;;;;8.43;6.75;;;23.60;99.90;;;;;;5161514;28;20612;-74
2023/08/27 02:02:26;;;;;;;10.25;6.78;;;23.50;99.90;;;;;;5161454;28;20034;-74
2023/08/27 02:04:57;;;;;;;7.82;6.00;;;23.50;99.90;;;;;;5162098;28;20034;-72
2023/08/27 02:07:28;;;;;;;11.40;6.95;;;23.60;99.90;;;;;;5161664;28;20033;-72
2023/08/27 02:09:59;;;;;;;11.35;7.13;;;23.60;99.90;;;;;;5162126;28;20565;-73
2023/08/27 02:12:29;;;;;;;12.38;7.60;;;23.60;99.90;;;;;;5161250;28;20804;-73
2023/08/27 02:15:03;;;;;;;10.27;6.60;;;23.70;99.90;;;;;;5161699;28;20042;-74
2023/08/27 02:17:34;;;;;;;9.98;6.93;;;23.70;99.90;;;;;;5160485;28;20018;-74
2023/08/27 02:20:09;;;;;;;11.80;6.82;;;23.70;99.90;;;;;;5161418;28;20037;-74
2023/08/27 02:22:39;;;;;;;9.60;6.95;;;23.60;99.90;;;;;;5159296;28;20054;-73
2023/08/27 02:25:11;;;;;;;8.85;6.90;;;23.80;99.90;;;;;;5159763;28;20117;-74
2023/08/27 02:27:42;;;;;;;11.93;6.40;;;23.80;99.90;;;;;;5160367;28;20077;-74
2023/08/27 02:30:15;;;;;;;9.52;7.13;;;23.90;99.90;;;;;;5159328;28;20038;-73
2023/08/27 02:32:46;;;;;;;11.00;6.55;;;23.80;99.90;;;;;;5159681;28;20054;-73
2023/08/27 02:35:17;;;;;;;8.82;6.50;;;23.80;99.90;;;;;;5159675;28;20030;-72
2023/08/27 02:37:48;;;;;;;10.40;6.63;;;23.70;99.90;;;;;;5161359;28;21400;-73
2023/08/27 02:40:19;;;;;;;12.48;6.55;;;23.80;99.90;;;;;;5160194;28;20041;-72
2023/08/27 02:42:49;;;;;;;8.30;6.75;;;23.70;99.90;;;;;;5160058;28;20540;-71
2023/08/27 02:45:20;;;;;;;12.27;6.32;;;23.60;99.90;;;;;;5160611;28;20034;-73
2023/08/27 02:47:51;;;;;;;10.25;6.63;;;23.70;99.90;;;;;;5160938;28;20541;-74
2023/08/27 02:50:22;;;;;;;10.02;6.18;;;23.70;99.90;;;;;;5160531;28;21439;-73
2023/08/27 02:52:53;;;;;;;9.82;6.40;;;23.80;99.90;;;;;;5159570;28;20815;-72
2023/08/27 02:55:27;;;;;;;11.07;6.25;;;23.80;99.90;;;;;;5160444;28;20041;-72
2023/08/27 02:57:59;;;;;;;10.50;7.50;;;23.70;99.90;;;;;;5159845;28;20769;-73
2023/08/27 03:00:30;;;;;;;14.27;7.05;;;23.80;99.90;;;;;;5160348;28;20108;-72
2023/08/27 03:03:01;;;;;;;9.65;6.65;;;23.80;99.90;;;;;;5160645;28;20033;-73
2023/08/27 03:05:32;;;;;;;12.60;7.45;;;23.80;99.90;;;;;;5159009;28;20030;-73
2023/08/27 03:08:03;;;;;;;13.68;7.32;;;23.80;99.90;;;;;;5160360;28;20027;-73
2023/08/27 03:10:34;;;;;;;12.52;6.53;;;23.80;99.90;;;;;;5160341;28;20026;-74
2023/08/27 03:13:05;;;;;;;8.70;7.32;;;23.90;99.90;;;;;;5160497;28;20381;-72
2023/08/27 03:15:36;;;;;;;7.88;7.05;;;23.80;99.90;;;;;;5159558;28;20090;-73
2023/08/27 03:18:07;;;;;;;13.10;7.53;;;23.80;99.90;;;;;;5159679;28;20517;-73
2023/08/27 03:20:37;;;;;;;11.07;6.78;;;23.90;99.90;;;;;;5158850;28;20026;-73
2023/08/27 03:23:08;;;;;;;11.05;8.15;;;23.90;99.90;;;;;;5159131;28;20080;-72
2023/08/27 03:25:39;;;;;;;8.90;7.40;;;23.90;99.90;;;;;;5157565;28;20054;-72
2023/08/27 03:28:10;;;;;;;12.00;7.03;;;23.80;99.90;;;;;;5157409;28;20053;-73
2023/08/27 03:30:41;;;;;;;11.40;7.63;;;23.90;99.90;;;;;;5158403;28;20140;-74
2023/08/27 03:33:12;;;;;;;7.93;6.72;;;23.80;99.90;;;;;;5158976;28;20038;-74
2023/08/27 03:35:57;;;;;;;14.23;7.45;;;24.00;99.90;;;;;;5159850;28;20035;-74
2023/08/27 03:38:28;;;;;;;10.38;6.82;;;23.90;99.90;;;;;;5159821;28;20034;-74
2023/08/27 03:40:59;;;;;;;11.00;6.88;;;23.80;99.90;;;;;;5159131;28;20044;-74
2023/08/27 03:43:29;;;;;;;14.02;7.00;;;23.90;99.90;;;;;;5159895;28;20038;-73
2023/08/27 03:46:00;;;;;;;8.30;6.25;;;23.90;99.90;;;;;;5160294;28;20052;-74
2023/08/27 03:48:31;;;;;;;10.23;6.20;;;23.90;99.90;;;;;;5158356;28;20034;-74
2023/08/27 03:51:02;;;;;;;7.35;5.97;;;23.90;99.90;;;;;;5158881;28;20421;-73
2023/08/27 03:53:33;;;;;;;9.93;6.10;;;23.90;99.90;;;;;;5159508;28;20041;-73
2023/08/27 03:56:04;;;;;;;9.77;6.03;;;23.90;99.90;;;;;;5158895;28;20113;-73
2023/08/27 03:58:35;;;;;;;7.18;5.53;;;23.80;99.90;;;;;;5159572;28;20110;-74
2023/08/27 04:01:06;;;;;;;7.75;5.72;;;23.80;99.90;;;;;;5159586;28;20034;-73
2023/08/27 04:03:37;;;;;;;9.55;5.45;;;23.80;99.90;;;;;;5158130;28;20049;-73
2023/08/27 04:06:08;;;;;;;13.38;5.00;;;23.80;99.90;;;;;;5159552;28;20015;-73
2023/08/27 04:08:38;;;;;;;13.10;5.72;;;23.90;99.90;;;;;;5159556;28;20026;-72
2023/08/27 04:11:11;;;;;;;8.57;6.18;;;23.90;99.90;;;;;;5158792;28;20501;-74
2023/08/27 04:13:42;;;;;;;9.68;5.93;;;24.10;99.90;;;;;;5157435;28;20370;-72
2023/08/27 04:16:13;;;;;;;6.03;5.03;;;24.20;99.90;;;;;;5157426;28;20027;-72
2023/08/27 04:18:44;;;;;;;12.52;5.57;;;23.90;99.90;;;;;;5158031;28;20037;-73
2023/08/27 04:21:15;;;;;;;9.80;4.93;;;23.90;99.90;;;;;;5157439;28;20070;-72
2023/08/27 04:23:45;;;;;;;8.50;5.25;;;24.10;99.90;;;;;;5158276;28;20041;-71
2023/08/27 04:26:18;;;;;;;6.40;4.90;;;24.10;99.90;;;;;;5157951;28;20015;-73
2023/08/27 04:28:50;;;;;;;10.15;5.85;;;24.20;99.90;;;;;;5158186;28;20038;-73
2023/08/27 04:31:22;;;;;;;8.07;5.63;;;24.20;99.90;;;;;;5539314;23;20775;-74
2023/08/27 04:33:53;;;;;;;11.18;5.15;;;24.20;99.90;;;;;;5143373;28;20031;-73
2023/08/27 04:36:24;;;;;;;9.52;5.30;;;24.20;99.90;;;;;;5172367;28;20042;-73
2023/08/27 04:38:55;;;;;;;10.43;5.85;;;24.20;99.90;;;;;;5160472;28;20029;-74
2023/08/27 04:41:25;;;;;;;10.52;4.95;;;24.30;99.90;;;;;;5158002;28;20075;-75
2023/08/27 04:43:56;;;;;;;9.50;5.63;;;24.30;99.90;;;;;;5158776;28;20042;-75
2023/08/27 04:46:27;;;;;;;9.30;5.55;;;24.50;99.90;;;;;;5158748;28;20490;-74
2023/08/27 04:48:58;;;;;;;8.20;5.75;;;24.40;99.90;;;;;;5162632;28;20482;-75
2023/08/27 04:51:29;;;;;;;12.80;5.63;;;24.40;99.90;;;;;;5160862;28;20490;-74
2023/08/27 04:54:01;;;;;;;11.23;5.55;;;24.40;99.90;;;;;;5162663;28;20132;-75
2023/08/27 04:56:32;;;;;;;8.25;5.32;;;24.50;99.90;;;;;;5161381;28;20513;-74
2023/08/27 04:59:03;;;;;;;9.27;5.55;;;24.50;99.90;;;;;;5162463;28;20022;-75
2023/08/27 05:01:34;;;;;;;8.90;5.38;;;24.80;99.90;;;;;;5161256;28;20038;-74
2023/08/27 05:04:05;;;;;;;7.82;5.40;;;24.80;99.90;;;;;;5161611;28;20035;-74
2023/08/27 05:06:36;;;;;;;8.38;5.18;;;24.70;99.90;;;;;;5160109;28;20041;-76
2023/08/27 05:09:07;;;;;;;8.57;5.28;;;24.70;99.90;;;;;;5161177;28;20382;-75
2023/08/27 05:11:38;;;;;;;9.68;5.88;;;24.70;99.90;;;;;;5160974;28;20038;-77
2023/08/27 05:14:09;;;;;;;8.73;6.05;;;24.90;99.90;;;;;;5160738;28;20039;-76
2023/08/27 05:16:40;;;;;;;14.70;6.13;;;25.00;99.90;;;;;;5160629;28;20034;-75
2023/08/27 05:19:11;;;;;;;6.90;6.20;;;25.10;99.90;;;;;;5162055;28;20033;-76
2023/08/27 05:21:42;;;;;;;8.95;6.60;;;25.00;99.90;;;;;;5162205;28;20104;-77
2023/08/27 05:24:12;;;;;;;11.30;6.82;;;25.00;99.90;;;;;;5160747;28;20436;-75
2023/08/27 05:26:44;;;;;;;9.32;6.82;;;25.10;99.90;;;;;;5161916;28;20041;-75
2023/08/27 05:29:15;;;;;;;12.20;7.57;;;25.30;99.90;;;;;;5161478;28;20034;-75
2023/08/27 05:31:46;;;;;;;9.85;6.88;;;25.30;99.90;;;;;;5161801;28;20105;-76
2023/08/27 05:34:17;;;;;;;8.40;6.80;;;25.30;99.90;;;;;;5161423;28;20019;-76
2023/08/27 05:36:47;;;;;;;9.05;6.63;;;25.20;99.90;;;;;;5161856;28;20088;-77
2023/08/27 05:39:19;;;;;;;9.75;6.75;;;25.20;99.90;;;;;;5161696;28;20026;-76
2023/08/27 05:41:50;;;;;;;7.75;6.40;;;25.30;99.90;;;;;;5162075;28;20026;-76
2023/08/27 05:44:21;;;;;;;12.15;6.68;;;25.40;99.90;;;;;;5161253;28;20030;-77
2023/08/27 05:46:52;;;;;;;10.02;5.35;;;25.50;99.90;;;;;;5161859;28;20065;-77
2023/08/27 05:49:23;;;;;;;9.18;5.93;;;25.60;99.90;;;;;;5160773;28;20034;-76
2023/08/27 05:51:54;;;;;;;10.82;5.45;;;25.60;99.90;;;;;;5161453;28;20053;-76
2023/08/27 05:54:24;;;;;;;10.77;5.45;;;25.80;99.90;;;;;;5161303;28;20102;-77
2023/08/27 05:56:55;;;;;;;12.52;5.93;;;26.00;99.90;;;;;;5161149;28;20096;-76
2023/08/27 05:59:26;;;;;;;11.52;7.10;;;26.00;99.90;;;;;;5161175;28;20569;-74
2023/08/27 06:01:59;;;;;;;14.55;7.90;;;26.00;99.90;;;;;;5159276;28;20040;-77
2023/08/27 06:04:30;;;;;;;11.68;7.20;;;26.10;99.90;;;;;;5161106;28;20895;-76
2023/08/27 06:07:01;;;;;;;10.75;8.07;;;26.20;99.90;;;;;;5161598;28;20029;-76
2023/08/27 06:09:32;;;;;;;10.38;8.52;;;26.20;99.90;;;;;;5159134;28;20039;-76
2023/08/27 06:12:04;;;;;;;10.98;7.85;;;26.20;99.90;;;;;;5160943;28;20034;-76
2023/08/27 06:14:35;;;;;;;9.10;8.30;;;26.00;99.90;;;;;;5159668;28;20045;-77
2023/08/27 06:17:06;;;;;;;10.93;7.60;;;26.20;99.90;;;;;;5160122;28;20030;-75
2023/08/27 06:19:37;;;;;;;9.80;7.97;;;26.20;99.90;;;;;;5159411;28;20125;-76
2023/08/27 06:22:08;;;;;;;8.88;6.88;;;26.40;99.90;;;;;;5159518;28;20030;-76
2023/08/27 06:24:39;;;;;;;9.57;8.18;;;26.70;99.90;;;;;;5158914;28;20026;-76
2023/08/27 06:27:09;;;;;;;8.57;7.38;;;26.70;99.90;;;;;;5159052;28;20092;-77
2023/08/27 06:29:45;;;;;;;12.73;7.93;;;26.80;99.90;;;;;;5159270;28;20042;-75
2023/08/27 06:32:16;;;;;;;7.57;6.82;;;26.80;99.90;;;;;;5159099;28;20540;-74
2023/08/27 06:34:47;;;;;;;18.50;7.43;;;27.00;99.90;;;;;;5160578;28;20026;-74
2023/08/27 06:37:17;;;;;;;12.55;7.65;;;27.00;99.90;;;;;;5160018;28;20501;-75
2023/08/27 06:39:49;;;;;;;11.25;8.35;;;27.00;99.90;;;;;;5158667;28;20026;-75
2023/08/27 06:42:20;;;;;;;10.85;8.40;;;27.00;99.90;;;;;;5157683;28;20038;-76
2023/08/27 06:44:51;;;;;;;11.95;8.73;;;27.30;99.90;;;;;;5159478;28;20033;-74
2023/08/27 06:47:22;;;;;;;11.75;8.35;;;27.00;99.90;;;;;;5157406;28;20044;-74
2023/08/27 06:49:53;;;;;;;10.75;8.35;;;26.80;99.90;;;;;;5158383;28;20045;-74
2023/08/27 06:52:24;;;;;;;9.52;8.13;;;26.70;99.90;;;;;;5158726;28;20074;-74
2023/08/27 06:54:55;;;;;;;11.82;8.05;;;26.90;99.90;;;;;;5159148;28;20030;-75
2023/08/27 06:57:26;;;;;;;10.45;8.68;;;26.70;99.90;;;;;;5159206;28;20050;-73
2023/08/27 06:59:57;;;;;;;8.90;7.60;;;26.50;99.90;;;;;;5160035;28;20038;-75
2023/08/27 07:02:28;;;;;;;17.45;8.55;;;26.70;99.90;;;;;;5159229;28;20125;-76
2023/08/27 07:04:59;;;;;;;9.48;7.45;;;26.50;99.90;;;;;;5160055;28;20022;-76
2023/08/27 07:07:30;;;;;;;9.45;6.72;;;26.90;99.90;;;;;;5158720;28;20042;-75
2023/08/27 07:10:00;;;;;;;10.55;7.35;;;27.10;99.90;;;;;;5159441;28;20041;-74
2023/08/27 07:12:35;;;;;;;10.95;8.63;;;27.20;99.90;;;;;;5158768;28;20494;-75
2023/08/27 07:15:07;;;;;;;13.15;8.63;;;27.10;99.90;;;;;;5159609;28;20013;-75
2023/08/27 07:17:38;;;;;;;10.77;7.88;;;27.00;99.90;;;;;;5158160;28;20034;-78
2023/08/27 07:20:11;;;;;;;9.95;7.32;;;27.00;99.90;;;;;;5159754;28;20073;-76
2023/08/27 07:22:42;;;;;;;9.52;7.20;;;26.80;99.90;;;;;;5160262;28;20037;-75
2023/08/27 07:25:13;;;;;;;12.63;7.38;;;26.90;99.90;;;;;;5160063;28;20019;-74
2023/08/27 07:27:45;;;;;;;10.98;7.45;;;27.00;99.90;;;;;;5159954;28;20030;-75
2023/08/27 07:32:56;;;;;;;12.65;7.95;;;27.10;99.90;;;;;;5184388;23;20069;-73
2023/08/27 07:35:29;;;;;;;10.73;8.15;;;27.00;99.90;;;;;;5159904;28;20026;-73
2023/08/27 07:38:00;;;;;;;9.60;8.18;;;27.20;99.90;;;;;;5135456;28;20035;-75
2023/08/27 07:40:35;;;;;;;9.57;7.93;;;27.20;99.90;;;;;;5144206;28;20014;-75
2023/08/27 07:43:07;;;;;;;9.23;7.50;;;27.20;99.90;;;;;;5155891;28;20037;-77
2023/08/27 07:45:38;;;;;;;10.05;7.75;;;27.20;99.90;;;;;;5158020;28;20018;-76
2023/08/27 07:48:09;;;;;;;10.65;8.32;;;27.20;99.90;;;;;;5157642;28;20034;-78
2023/08/27 07:50:40;;;;;;;10.73;8.13;;;27.30;99.90;;;;;;5157916;28;20042;-76
2023/08/27 07:53:11;;;;;;;8.88;7.35;;;27.60;99.90;;;;;;5158535;28;20030;-77
2023/08/27 07:55:44;;;;;;;13.73;6.95;;;27.80;99.90;;;;;;5158588;28;20033;-72
2023/08/27 07:58:15;;;;;;;13.80;9.48;;;27.70;99.90;;;;;;5156758;28;20113;-76
2023/08/27 08:00:46;;;;;;;12.73;6.75;;;27.60;99.90;;;;;;5158723;28;20038;-76
2023/08/27 08:03:17;;;;;;;11.35;6.50;;;27.50;99.90;;;;;;5159708;28;20467;-76
2023/08/27 08:05:49;;;;;;;10.20;6.25;;;27.30;99.90;;;;;;5159035;28;20057;-74
2023/08/27 08:08:19;;;;;;;12.82;6.55;;;27.40;99.90;;;;;;5157818;28;20080;-75
2023/08/27 08:10:55;;;;;;;9.32;6.18;;;27.30;99.90;;;;;;5159133;28;20046;-73
2023/08/27 08:13:26;;;;;;;10.20;7.32;;;27.40;99.90;;;;;;5159863;28;20042;-74
2023/08/27 08:15:57;;;;;;;18.05;6.78;;;27.60;99.90;;;;;;5159343;28;20144;-75
2023/08/27 08:18:30;;;;;;;9.27;6.38;;;27.50;99.90;;;;;;5159927;28;20080;-75
2023/08/27 08:21:01;;;;;;;8.10;6.20;;;27.50;99.90;;;;;;5159785;28;20053;-74
2023/08/27 08:23:33;;;;;;;9.02;7.00;;;27.30;99.90;;;;;;5163847;28;20061;-74
2023/08/27 08:26:05;;;;;;;11.88;7.20;;;27.30;99.90;;;;;;5163680;28;20026;-73
2023/08/27 08:28:36;;;;;;;10.43;7.07;;;27.50;99.90;;;;;;5162307;28;20039;-75
2023/08/27 08:31:06;;;;;;;11.30;7.18;;;27.60;99.90;;;;;;5161875;28;20105;-75
2023/08/27 08:33:37;;;;;;;8.77;6.82;;;27.40;99.90;;;;;;5162497;28;20031;-73
2023/08/27 08:36:08;;;;;;;10.98;7.70;;;27.20;99.90;;;;;;5162609;28;20035;-74
2023/08/27 08:38:39;;;;;;;10.73;6.85;;;27.20;99.90;;;;;;5163448;28;20022;-74
2023/08/27 08:41:14;;;;;;;26.05;7.32;;;27.40;99.90;;;;;;5161895;28;20118;-74
2023/08/27 08:43:54;;;;;;;15.57;7.40;;;27.40;99.90;;;;;;5160929;28;20069;-76
2023/08/27 08:46:31;;;;;;;10.85;6.57;;;27.60;99.90;;;;;;5162527;28;20041;-77
2023/08/27 08:49:03;;;;;;;15.77;7.50;;;27.60;99.90;;;;;;5162435;28;20054;-74
2023/08/27 08:51:35;;;;;;;12.07;7.05;;;27.70;99.90;;;;;;5161760;28;20038;-75
2023/08/27 08:54:11;;;;;;;8.30;5.80;;;27.90;99.90;;;;;;5161803;28;20037;-75
2023/08/27 08:56:48;;;;;;;7.95;5.50;;;28.20;99.90;;;;;;5157065;28;20041;-76
2023/08/27 08:59:20;;;;;;;8.60;5.82;;;28.10;99.90;;;;;;5162441;28;20037;-75
2023/08/27 09:01:51;;;;;;;10.88;6.18;;;28.20;99.90;;;;;;5160659;28;20039;-75
2023/08/27 09:04:24;;;;;;;11.15;6.28;;;28.30;99.90;;;;;;5160023;28;20043;-76
2023/08/27 09:06:55;;;;;;;11.00;5.60;;;28.20;99.90;;;;;;5160638;28;20034;-75
2023/08/27 09:09:26;;;;;;;10.35;5.82;;;28.40;99.90;;;;;;5163063;28;20070;-76
2023/08/27 09:12:01;;;;;;;11.50;5.65;;;28.60;99.90;;;;;;5161157;28;20048;-76
2023/08/27 09:14:32;;;;;;;11.05;5.75;;;28.70;99.90;;;;;;5161260;28;20019;-75
2023/08/27 09:17:04;;;;;;;11.77;5.82;;;28.40;99.90;;;;;;5162176;28;20015;-75
2023/08/27 09:19:35;;;;;;;7.80;6.18;;;28.30;99.90;;;;;;5160833;28;20553;-75
2023/08/27 09:22:06;;;;;;;6.93;4.95;;;28.10;99.90;;;;;;5162239;28;20026;-75
2023/08/27 09:24:37;;;;;;;7.60;5.40;;;28.20;99.90;;;;;;5161421;28;20030;-76
2023/08/27 09:27:08;;;;;;;9.38;5.78;;;27.90;99.90;;;;;;5160321;28;20053;-73
2023/08/27 09:29:42;;;;;;;12.60;5.82;;;27.80;99.90;;;;;;5161803;28;20052;-75
2023/08/27 09:32:21;;;;;;;7.95;5.53;;;28.20;99.90;;;;;;5160903;28;20505;-77
2023/08/27 09:35:02;;;;;;;10.75;5.35;;;28.30;99.90;;;;;;5162189;28;20042;-74
2023/08/27 09:37:43;;;;;;;11.50;5.80;;;28.30;99.90;;;;;;5161742;28;20113;-76
2023/08/27 09:40:17;;;;;;;5.95;4.95;;;28.40;99.90;;;;;;5162054;28;20038;-75
2023/08/27 09:42:51;;;;;;;8.88;5.78;;;28.40;99.90;;;;;;5161238;28;20439;-76
2023/08/27 09:45:22;;;;;;;10.00;6.15;;;28.30;99.90;;;;;;5161658;28;20031;-76
2023/08/27 09:47:58;;;;;;;7.47;5.90;;;28.20;99.90;;;;;;5161144;28;20101;-75
2023/08/27 09:50:29;;;;;;;9.77;6.32;;;28.20;99.90;;;;;;5160073;28;20045;-77
2023/08/27 09:53:20;;;;;;;7.22;5.38;;;28.90;99.90;;;;;;5161649;28;20063;-76
2023/08/27 09:55:51;;;;;;;11.50;5.20;;;29.00;99.90;;;;;;5161581;28;20038;-75
2023/08/27 09:58:26;;;;;;;8.43;4.03;;;28.60;99.90;;;;;;5162205;28;20057;-73
2023/08/27 10:01:00;;;;;;;11.05;4.85;;;28.30;99.90;;;;;;5161301;28;20114;-75
2023/08/27 10:03:31;;;;;;;7.10;4.32;;;28.60;99.90;;;;;;5161770;28;20063;-75
2023/08/27 10:06:02;;;;;;;7.43;4.82;;;28.70;99.90;;;;;;5159935;28;20105;-74
2023/08/27 10:08:44;;;;;;;11.27;4.85;;;28.50;99.90;;;;;;5161954;28;20069;-75
2023/08/27 10:11:16;;;;;;;14.10;4.88;;;28.50;99.90;;;;;;5159896;28;20069;-76
2023/08/27 10:13:47;;;;;;;8.57;4.43;;;28.60;99.90;;;;;;5161547;28;20026;-75
2023/08/27 10:16:19;;;;;;;9.57;4.93;;;28.80;99.90;;;;;;5161332;28;20048;-74
2023/08/27 10:18:51;;;;;;;5.82;4.15;;;28.60;99.90;;;;;;5161417;28;20030;-76
2023/08/27 10:21:23;;;;;;;8.63;4.05;;;28.80;99.90;;;;;;5160034;28;20500;-76
2023/08/27 10:23:54;;;;;;;7.07;5.15;;;28.80;99.90;;;;;;5160462;28;20061;-76
2023/08/27 10:26:25;;;;;;;11.73;5.30;;;28.40;99.90;;;;;;5160784;28;20025;-76
2023/08/27 10:28:58;;;;;;;11.88;5.47;;;28.60;99.90;;;;;;5159650;28;20045;-76
2023/08/27 10:31:29;;;;;;;15.60;5.53;;;28.80;99.90;;;;;;5159942;28;20066;-75
2023/08/27 10:34:00;;;;;;;11.27;4.90;;;29.10;99.90;;;;;;5159595;28;20136;-77
2023/08/27 10:36:36;;;;;;;8.27;4.63;;;29.30;99.90;;;;;;5159718;28;20057;-76
2023/08/27 10:39:08;;;;;;;1271.47;191.38;;;29.10;99.90;;;;;;5158925;28;20095;-76
2023/08/27 10:41:39;;;;;;;11.75;6.03;;;29.10;99.90;;;;;;5158617;28;20031;-77
2023/08/27 10:44:10;;;;;;;16.30;5.60;;;29.00;99.90;;;;;;5159941;28;20112;-76
2023/08/27 10:47:03;;;;;;;98.97;84.55;;;28.60;99.90;;;;;;5158642;28;20023;-75
2023/08/27 10:49:38;;;;;;;148.23;132.20;;;28.80;99.90;;;;;;5160266;28;20113;-74
2023/08/27 10:52:29;;;;;;;121.20;109.45;;;28.70;99.90;;;;;;5160645;28;20038;-76
2023/08/27 10:55:01;;;;;;;8.70;5.93;;;28.80;99.90;;;;;;5158856;28;20064;-77
2023/08/27 10:57:37;;;;;;;6.78;5.60;;;29.00;99.90;;;;;;5160915;28;20042;-75
2023/08/27 11:00:10;;;;;;;7.32;5.53;;;29.30;99.90;;;;;;5160723;28;20073;-76
2023/08/27 11:03:13;;;;;;;7.63;5.72;;;29.20;99.90;;;;;;5158931;28;20027;-75
2023/08/27 11:05:45;;;;;;;9.35;6.07;;;28.90;99.90;;;;;;5159289;28;20026;-74
2023/08/27 11:08:32;;;;;;;8.93;5.85;;;28.80;99.90;;;;;;5158459;28;20501;-75
2023/08/27 11:11:13;;;;;;;13.75;6.03;;;28.70;99.90;;;;;;5158897;28;20046;-76
2023/08/27 11:13:47;;;;;;;8.13;5.78;;;28.70;99.90;;;;;;5160075;28;20053;-76
2023/08/27 11:16:18;;;;;;;13.70;5.40;;;29.10;99.90;;;;;;5160008;28;20466;-75
2023/08/27 11:18:50;;;;;;;37.25;7.47;;;29.00;99.90;;;;;;5159731;28;20022;-75
2023/08/27 11:21:27;;;;;;;10.35;6.20;;;29.00;99.90;;;;;;5158680;28;20034;-75
2023/08/27 11:24:25;;;;;;;15.90;6.63;;;28.60;99.90;;;;;;5158422;28;20038;-74
2023/08/27 11:26:59;;;;;;;9.27;5.43;;;29.30;99.90;;;;;;5157652;28;20053;-75
2023/08/27 11:29:30;;;;;;;10.15;5.32;;;29.60;99.90;;;;;;5158659;28;20034;-75
2023/08/27 11:32:03;;;;;;;12.48;4.85;;;29.40;99.90;;;;;;5158624;28;20064;-75
2023/08/27 11:34:35;;;;;;;9.52;4.93;;;29.50;99.90;;;;;;5158325;28;20458;-75
2023/08/27 11:37:07;;;;;;;12.73;5.30;;;29.40;99.90;;;;;;5157798;28;20430;-74
2023/08/27 11:39:39;;;;;;;9.05;4.43;;;29.20;99.90;;;;;;5159758;28;20045;-74
2023/08/27 11:42:16;;;;;;;10.10;5.25;;;29.10;99.90;;;;;;5159790;28;20053;-76
2023/08/27 11:44:48;;;;;;;8.00;5.47;;;29.10;99.90;;;;;;5159218;28;20026;-77
2023/08/27 11:47:21;;;;;;;8.50;5.43;;;29.30;99.90;;;;;;5160283;28;20848;-76
2023/08/27 11:49:56;;;;;;;14.63;5.28;;;29.20;99.90;;;;;;5159118;28;20031;-76
2023/08/27 11:52:27;;;;;;;8.85;4.82;;;29.20;99.90;;;;;;5160022;28;20038;-75
2023/08/27 11:54:59;;;;;;;12.07;5.00;;;29.10;99.90;;;;;;5159293;28;20668;-75
2023/08/27 11:57:30;;;;;;;10.80;5.40;;;29.20;99.90;;;;;;5159723;28;20038;-76
2023/08/27 12:00:11;;;;;;;8.57;4.70;;;29.50;99.90;;;;;;5158243;28;20348;-75
2023/08/27 12:02:42;;;;;;;13.27;5.07;;;29.50;99.90;;;;;;5159111;28;20033;-75
2023/08/27 12:05:13;;;;;;;11.15;5.65;;;29.40;99.90;;;;;;5158824;28;20019;-75
2023/08/27 12:07:44;;;;;;;8.23;4.40;;;29.40;99.90;;;;;;5157658;28;20033;-77
2023/08/27 12:10:15;;;;;;;8.45;4.72;;;29.10;99.90;;;;;;5159386;28;20474;-76
2023/08/27 12:12:46;;;;;;;8.70;4.93;;;29.40;99.90;;;;;;5151809;28;21202;-76
2023/08/27 12:15:17;;;;;;;11.77;5.68;;;29.40;99.90;;;;;;5146740;28;20022;-75
2023/08/27 12:17:47;;;;;;;11.43;5.47;;;29.30;99.90;;;;;;5157571;28;20038;-77
2023/08/27 12:20:31;;;;;;;11.15;4.70;;;29.30;99.90;;;;;;5158451;28;20074;-76
2023/08/27 12:23:14;;;;;;;7.85;4.70;;;28.70;99.90;;;;;;5157504;28;20026;-75
2023/08/27 12:25:46;;;;;;;10.80;5.25;;;28.60;99.90;;;;;;5157454;28;20083;-75
2023/08/27 12:28:17;;;;;;;12.63;6.05;;;28.50;99.90;;;;;;5157482;28;20069;-75
2023/08/27 12:30:52;;;;;;;12.65;5.40;;;28.70;99.90;;;;;;5562951;23;20911;-77
2023/08/27 12:33:39;;;;;;;8.57;5.10;;;28.60;99.90;;;;;;5148587;28;20035;-75
2023/08/27 12:36:10;;;;;;;20.75;5.97;;;28.40;99.90;;;;;;5157746;28;20035;-76
2023/08/27 12:38:41;;;;;;;9.25;5.03;;;28.20;99.90;;;;;;5158464;28;20034;-75
2023/08/27 12:41:12;;;;;;;10.95;5.15;;;28.30;99.90;;;;;;5158033;28;20367;-76
2023/08/27 12:43:43;;;;;;;12.75;5.38;;;28.50;99.90;;;;;;5157703;28;20030;-76
2023/08/27 12:46:14;;;;;;;9.48;5.68;;;28.60;99.90;;;;;;5158643;28;20556;-76
2023/08/27 12:48:45;;;;;;;10.07;4.90;;;28.60;99.90;;;;;;5158509;28;20026;-76
2023/08/27 12:51:16;;;;;;;11.45;5.22;;;28.10;99.90;;;;;;5155673;28;20505;-75
2023/08/27 12:53:47;;;;;;;10.80;4.93;;;28.40;99.90;;;;;;5157787;28;20027;-76
2023/08/27 12:56:18;;;;;;;8.43;5.15;;;28.70;99.90;;;;;;5158555;28;20072;-74
2023/08/27 12:58:49;;;;;;;9.77;5.43;;;28.30;99.90;;;;;;5153458;28;20030;-75
2023/08/27 13:01:19;;;;;;;10.65;5.55;;;28.20;99.90;;;;;;5154388;28;20038;-74
2023/08/27 13:03:50;;;;;;;10.80;5.13;;;28.30;99.90;;;;;;5154093;28;20048;-74
2023/08/27 13:06:21;;;;;;;9.88;4.68;;;28.90;99.90;;;;;;5153673;28;20038;-75
2023/08/27 13:08:52;;;;;;;9.10;4.57;;;28.70;99.90;;;;;;5173112;28;20038;-75
2023/08/27 13:11:23;;;;;;;23.88;7.20;;;28.80;99.90;;;;;;5161389;28;20066;-76
2023/08/27 13:13:55;;;;;;;8.02;4.70;;;28.90;99.90;;;;;;5160802;28;20038;-73